sensor_id;sensor_type;location;lat;lon;timestamp;pressure;altitude;pressure_sealevel;temperature;humidity
65227;BME280;51805;49.012;12.104;2023-02-01T00:00:58;98210.16;;;21.96;50.15
65227;BME280;51805;49.012;12.104;2023-02-01T00:03:23;98207.72;;;22.00;50.02
65227;BME280;51805;49.012;12.104;2023-02-01T00:05:57;98200.44;;;22.05;50.02
65227;BME280;51805;49.012;12.104;2023-02-01T00:08:23;98200.44;;;22.00;49.91
65227;BME280;51805;49.012;12.104;2023-02-01T00:10:48;98204.75;;;21.96;50.18
65227;BME280;51805;49.012;12.104;2023-02-01T00:13:13;98205.28;;;21.93;50.11
65227;BME280;51805;49.012;12.104;2023-02-01T00:15:39;98199.88;;;21.93;49.96
65227;BME280;51805;49.012;12.104;2023-02-01T00:18:04;98191.78;;;21.88;50.20
65227;BME280;51805;49.012;12.104;2023-02-01T00:20:29;98192.28;;;21.90;50.05
65227;BME280;51805;49.012;12.104;2023-02-01T00:22:54;98190.13;;;21.87;50.29
65227;BME280;51805;49.012;12.104;2023-02-01T00:25:19;98190.94;;;21.88;50.01
65227;BME280;51805;49.012;12.104;2023-02-01T00:27:48;98190.41;;;21.86;50.11
65227;BME280;51805;49.012;12.104;2023-02-01T00:30:13;98180.94;;;21.83;50.08
65227;BME280;51805;49.012;12.104;2023-02-01T00:32:38;98193.91;;;21.81;50.11
65227;BME280;51805;49.012;12.104;2023-02-01T00:35:03;98195.00;;;21.80;50.16
65227;BME280;51805;49.012;12.104;2023-02-01T00:37:29;98187.16;;;21.79;50.21
65227;BME280;51805;49.012;12.104;2023-02-01T00:39:54;98185.00;;;21.76;50.31
65227;BME280;51805;49.012;12.104;2023-02-01T00:42:19;98181.47;;;21.75;50.12
65227;BME280;51805;49.012;12.104;2023-02-01T00:44:44;98186.28;;;21.73;50.15
65227;BME280;51805;49.012;12.104;2023-02-01T00:47:09;98187.94;;;21.74;50.08
65227;BME280;51805;49.012;12.104;2023-02-01T00:49:34;98185.22;;;21.74;50.10
65227;BME280;51805;49.012;12.104;2023-02-01T00:51:59;98175.47;;;21.73;50.32
65227;BME280;51805;49.012;12.104;2023-02-01T00:54:24;98172.75;;;21.73;49.99
65227;BME280;51805;49.012;12.104;2023-02-01T00:56:50;98177.66;;;21.71;50.02
65227;BME280;51805;49.012;12.104;2023-02-01T00:59:15;98179.25;;;21.67;50.27
65227;BME280;51805;49.012;12.104;2023-02-01T01:01:40;98170.88;;;21.69;50.17
65227;BME280;51805;49.012;12.104;2023-02-01T01:04:05;98173.31;;;21.70;49.97
65227;BME280;51805;49.012;12.104;2023-02-01T01:06:31;98172.22;;;21.66;50.18
65227;BME280;51805;49.012;12.104;2023-02-01T01:08:58;98163.56;;;21.64;50.05
65227;BME280;51805;49.012;12.104;2023-02-01T01:11:24;98168.97;;;21.64;50.22
65227;BME280;51805;49.012;12.104;2023-02-01T01:13:50;98175.47;;;21.63;50.28
65227;BME280;51805;49.012;12.104;2023-02-01T01:16:16;98169.50;;;21.61;50.26
65227;BME280;51805;49.012;12.104;2023-02-01T01:18:41;98170.88;;;21.59;50.18
65227;BME280;51805;49.012;12.104;2023-02-01T01:21:07;98168.44;;;21.57;50.14
65227;BME280;51805;49.012;12.104;2023-02-01T01:23:32;98177.59;;;21.56;50.25
65227;BME280;51805;49.012;12.104;2023-02-01T01:25:58;98173.00;;;21.57;50.18
65227;BME280;51805;49.012;12.104;2023-02-01T01:28:23;98165.16;;;21.55;50.22
65227;BME280;51805;49.012;12.104;2023-02-01T01:30:48;98165.16;;;21.55;50.15
65227;BME280;51805;49.012;12.104;2023-02-01T01:33:13;98168.69;;;21.56;50.16
65227;BME280;51805;49.012;12.104;2023-02-01T01:35:38;98173.56;;;21.54;50.06
65227;BME280;51805;49.012;12.104;2023-02-01T01:38:03;98160.28;;;21.52;50.26
65227;BME280;51805;49.012;12.104;2023-02-01T01:40:29;98166.53;;;21.53;50.13
65227;BME280;51805;49.012;12.104;2023-02-01T01:42:54;98158.69;;;21.51;50.18
65227;BME280;51805;49.012;12.104;2023-02-01T01:45:27;98160.84;;;21.49;50.01
65227;BME280;51805;49.012;12.104;2023-02-01T01:47:54;98158.94;;;21.50;50.06
65227;BME280;51805;49.012;12.104;2023-02-01T01:50:21;98157.56;;;21.47;50.09
65227;BME280;51805;49.012;12.104;2023-02-01T01:52:48;98157.31;;;21.43;50.13
65227;BME280;51805;49.012;12.104;2023-02-01T01:55:14;98150.00;;;21.44;50.26
65227;BME280;51805;49.012;12.104;2023-02-01T01:57:41;98147.56;;;21.42;50.06
65227;BME280;51805;49.012;12.104;2023-02-01T02:00:09;98147.84;;;21.41;50.03
65227;BME280;51805;49.012;12.104;2023-02-01T02:02:35;98141.63;;;21.40;50.21
65227;BME280;51805;49.012;12.104;2023-02-01T02:05:01;98142.44;;;21.41;50.08
65227;BME280;51805;49.012;12.104;2023-02-01T02:07:27;98141.63;;;21.40;49.91
65227;BME280;51805;49.012;12.104;2023-02-01T02:09:53;98130.81;;;21.40;50.07
65227;BME280;51805;49.012;12.104;2023-02-01T02:12:18;98135.94;;;21.37;49.95
65227;BME280;51805;49.012;12.104;2023-02-01T02:14:44;98139.69;;;21.36;49.95
65227;BME280;51805;49.012;12.104;2023-02-01T02:17:52;98141.63;;;21.35;50.15
65227;BME280;51805;49.012;12.104;2023-02-01T02:22:47;98132.94;;;21.33;50.21
65227;BME280;51805;49.012;12.104;2023-02-01T02:35:26;98131.06;;;21.29;50.04
65227;BME280;51805;49.012;12.104;2023-02-01T02:37:56;98125.09;;;21.27;49.93
65227;BME280;51805;49.012;12.104;2023-02-01T02:40:35;98129.72;;;21.26;50.13
65227;BME280;51805;49.012;12.104;2023-02-01T02:43:23;98125.34;;;21.25;50.00
65227;BME280;51805;49.012;12.104;2023-02-01T02:45:55;98121.88;;;21.25;50.07
65227;BME280;51805;49.012;12.104;2023-02-01T02:50:54;98118.59;;;21.23;49.96
65227;BME280;51805;49.012;12.104;2023-02-01T02:53:34;98116.16;;;21.21;49.92
65227;BME280;51805;49.012;12.104;2023-02-01T02:56:05;98111.59;;;21.22;50.01
65227;BME280;51805;49.012;12.104;2023-02-01T02:58:31;98109.16;;;21.20;50.09
65227;BME280;51805;49.012;12.104;2023-02-01T03:00:56;98112.91;;;21.19;50.06
65227;BME280;51805;49.012;12.104;2023-02-01T03:03:22;98113.19;;;21.18;49.95
65227;BME280;51805;49.012;12.104;2023-02-01T03:05:47;98110.75;;;21.16;50.09
65227;BME280;51805;49.012;12.104;2023-02-01T03:08:14;98103.47;;;21.17;50.09
65227;BME280;51805;49.012;12.104;2023-02-01T03:16:08;98102.91;;;21.15;50.27
65227;BME280;51805;49.012;12.104;2023-02-01T03:18:49;98101.28;;;21.14;50.24
65227;BME280;51805;49.012;12.104;2023-02-01T03:21:18;98104.00;;;21.14;50.23
65227;BME280;51805;49.012;12.104;2023-02-01T03:23:46;98103.16;;;21.13;50.37
65227;BME280;51805;49.012;12.104;2023-02-01T03:26:13;98099.91;;;21.11;50.37
65227;BME280;51805;49.012;12.104;2023-02-01T03:28:39;98098.31;;;21.10;50.33
65227;BME280;51805;49.012;12.104;2023-02-01T03:31:08;98097.22;;;21.11;50.49
65227;BME280;51805;49.012;12.104;2023-02-01T03:33:33;98092.06;;;21.10;50.46
65227;BME280;51805;49.012;12.104;2023-02-01T03:38:40;98086.66;;;21.10;50.47
65227;BME280;51805;49.012;12.104;2023-02-01T03:41:10;98083.44;;;21.08;50.30
65227;BME280;51805;49.012;12.104;2023-02-01T03:43:40;98084.22;;;21.08;50.38
65227;BME280;51805;49.012;12.104;2023-02-01T03:46:08;98070.19;;;21.06;50.38
65227;BME280;51805;49.012;12.104;2023-02-01T03:48:34;98066.41;;;21.07;50.18
65227;BME280;51805;49.012;12.104;2023-02-01T03:51:00;98053.97;;;21.06;50.26
65227;BME280;51805;49.012;12.104;2023-02-01T03:53:27;98054.25;;;21.05;50.44
65227;BME280;51805;49.012;12.104;2023-02-01T03:55:53;98048.28;;;21.03;50.26
65227;BME280;51805;49.012;12.104;2023-02-01T03:58:20;98053.69;;;21.03;50.30
65227;BME280;51805;49.012;12.104;2023-02-01T04:00:53;98060.19;;;21.02;50.32
65227;BME280;51805;49.012;12.104;2023-02-01T04:03:18;98065.59;;;21.02;50.34
65227;BME280;51805;49.012;12.104;2023-02-01T04:05:43;98066.91;;;20.99;50.39
65227;BME280;51805;49.012;12.104;2023-02-01T04:08:08;98068.56;;;21.00;50.27
65227;BME280;51805;49.012;12.104;2023-02-01T04:10:33;98064.22;;;20.99;50.27
65227;BME280;51805;49.012;12.104;2023-02-01T04:12:58;98068.84;;;20.99;50.24
65227;BME280;51805;49.012;12.104;2023-02-01T04:15:24;98066.91;;;20.99;50.09
65227;BME280;51805;49.012;12.104;2023-02-01T04:17:49;98061.78;;;20.98;50.21
65227;BME280;51805;49.012;12.104;2023-02-01T04:20:14;98074.25;;;20.99;50.10
65227;BME280;51805;49.012;12.104;2023-02-01T04:22:39;98068.28;;;20.97;50.27
65227;BME280;51805;49.012;12.104;2023-02-01T04:25:04;98064.75;;;20.96;50.24
65227;BME280;51805;49.012;12.104;2023-02-01T04:27:30;98060.44;;;20.95;50.32
65227;BME280;51805;49.012;12.104;2023-02-01T04:29:55;98063.13;;;20.95;50.17
65227;BME280;51805;49.012;12.104;2023-02-01T04:32:20;98062.28;;;20.95;50.02
65227;BME280;51805;49.012;12.104;2023-02-01T04:34:45;98071.47;;;20.94;50.15
65227;BME280;51805;49.012;12.104;2023-02-01T04:37:10;98065.25;;;20.93;50.25
65227;BME280;51805;49.012;12.104;2023-02-01T04:39:36;98061.72;;;20.93;50.11
65227;BME280;51805;49.012;12.104;2023-02-01T04:42:01;98063.38;;;20.94;50.02
65227;BME280;51805;49.012;12.104;2023-02-01T04:44:27;98050.41;;;20.91;50.07
65227;BME280;51805;49.012;12.104;2023-02-01T04:46:52;98042.81;;;20.93;50.01
65227;BME280;51805;49.012;12.104;2023-02-01T04:49:17;98041.22;;;20.92;50.14
65227;BME280;51805;49.012;12.104;2023-02-01T04:51:43;98045.25;;;20.94;50.24
65227;BME280;51805;49.012;12.104;2023-02-01T04:54:08;98034.72;;;20.93;50.15
65227;BME280;51805;49.012;12.104;2023-02-01T04:56:34;98037.41;;;20.93;50.09
65227;BME280;51805;49.012;12.104;2023-02-01T04:58:59;98029.59;;;20.91;50.24
65227;BME280;51805;49.012;12.104;2023-02-01T05:01:24;98029.84;;;20.90;50.31
65227;BME280;51805;49.012;12.104;2023-02-01T05:03:50;98029.31;;;20.88;50.35
65227;BME280;51805;49.012;12.104;2023-02-01T05:06:15;98025.53;;;20.89;50.32
65227;BME280;51805;49.012;12.104;2023-02-01T05:08:40;98030.94;;;20.89;50.28
65227;BME280;51805;49.012;12.104;2023-02-01T05:11:05;98025.53;;;20.89;50.17
65227;BME280;51805;49.012;12.104;2023-02-01T05:13:31;98033.66;;;20.89;50.20
65227;BME280;51805;49.012;12.104;2023-02-01T05:15:56;98033.09;;;20.87;50.20
65227;BME280;51805;49.012;12.104;2023-02-01T05:18:21;98026.63;;;20.88;50.09
65227;BME280;51805;49.012;12.104;2023-02-01T05:20:46;98016.88;;;20.87;50.24
65227;BME280;51805;49.012;12.104;2023-02-01T05:23:11;98018.78;;;20.86;50.12
65227;BME280;51805;49.012;12.104;2023-02-01T05:25:36;98018.53;;;20.88;50.03
65227;BME280;51805;49.012;12.104;2023-02-01T05:28:02;98014.19;;;20.87;50.26
65227;BME280;51805;49.012;12.104;2023-02-01T05:30:27;98022.53;;;20.85;50.22
65227;BME280;51805;49.012;12.104;2023-02-01T05:32:52;98013.66;;;20.85;50.11
65227;BME280;51805;49.012;12.104;2023-02-01T05:35:17;98008.00;;;20.86;50.14
65227;BME280;51805;49.012;12.104;2023-02-01T05:37:43;97990.97;;;20.86;49.99
65227;BME280;51805;49.012;12.104;2023-02-01T05:40:08;97995.28;;;20.87;50.21
65227;BME280;51805;49.012;12.104;2023-02-01T05:42:33;97996.09;;;20.87;50.02
65227;BME280;51805;49.012;12.104;2023-02-01T05:44:58;98003.94;;;20.89;49.96
65227;BME280;51805;49.012;12.104;2023-02-01T05:47:23;98000.13;;;20.90;50.08
65227;BME280;51805;49.012;12.104;2023-02-01T05:49:49;97999.06;;;20.91;49.99
65227;BME280;51805;49.012;12.104;2023-02-01T05:52:14;97996.91;;;20.93;49.97
65227;BME280;51805;49.012;12.104;2023-02-01T05:54:39;97986.66;;;20.95;49.74
65227;BME280;51805;49.012;12.104;2023-02-01T05:57:04;97994.19;;;20.93;49.97
65227;BME280;51805;49.012;12.104;2023-02-01T05:59:29;97987.72;;;20.94;49.69
65227;BME280;51805;49.012;12.104;2023-02-01T06:01:54;97988.31;;;20.96;49.65
65227;BME280;51805;49.012;12.104;2023-02-01T06:04:19;97981.28;;;21.00;49.64
65227;BME280;51805;49.012;12.104;2023-02-01T06:06:44;97981.03;;;21.01;49.59
65227;BME280;51805;49.012;12.104;2023-02-01T06:09:10;97971.81;;;21.02;49.67
65227;BME280;51805;49.012;12.104;2023-02-01T06:11:35;97982.63;;;21.02;49.70
65227;BME280;51805;49.012;12.104;2023-02-01T06:14:00;97975.91;;;21.05;49.47
65227;BME280;51805;49.012;12.104;2023-02-01T06:16:25;97969.94;;;21.08;49.42
65227;BME280;51805;49.012;12.104;2023-02-01T06:18:50;97978.03;;;21.13;49.31
65227;BME280;51805;49.012;12.104;2023-02-01T06:21:15;97966.16;;;21.24;49.32
65227;BME280;51805;49.012;12.104;2023-02-01T06:23:41;97969.97;;;21.28;49.23
65227;BME280;51805;49.012;12.104;2023-02-01T06:26:06;97967.78;;;21.30;49.30
65227;BME280;51805;49.012;12.104;2023-02-01T06:28:32;97967.50;;;21.31;49.20
65227;BME280;51805;49.012;12.104;2023-02-01T06:30:57;97968.06;;;21.33;49.48
65227;BME280;51805;49.012;12.104;2023-02-01T06:33:22;97975.59;;;21.31;49.43
65227;BME280;51805;49.012;12.104;2023-02-01T06:35:47;97971.56;;;21.29;49.71
65227;BME280;51805;49.012;12.104;2023-02-01T06:38:12;97967.50;;;21.31;49.71
65227;BME280;51805;49.012;12.104;2023-02-01T06:40:38;97973.19;;;21.35;49.61
65227;BME280;51805;49.012;12.104;2023-02-01T06:43:03;97963.75;;;21.37;49.55
65227;BME280;51805;49.012;12.104;2023-02-01T06:45:29;97967.78;;;21.40;49.55
65227;BME280;51805;49.012;12.104;2023-02-01T06:47:54;97967.25;;;21.43;49.46
65227;BME280;51805;49.012;12.104;2023-02-01T06:50:19;97968.84;;;21.44;49.47
65227;BME280;51805;49.012;12.104;2023-02-01T06:52:44;97972.66;;;21.43;49.58
65227;BME280;51805;49.012;12.104;2023-02-01T06:55:10;97969.13;;;21.48;49.29
65227;BME280;51805;49.012;12.104;2023-02-01T06:57:35;97970.47;;;21.50;49.22
65227;BME280;51805;49.012;12.104;2023-02-01T07:00:00;97967.75;;;21.50;49.53
65227;BME280;51805;49.012;12.104;2023-02-01T07:02:25;97968.59;;;21.56;49.37
65227;BME280;51805;49.012;12.104;2023-02-01T07:04:50;97972.63;;;21.58;49.06
65227;BME280;51805;49.012;12.104;2023-02-01T07:07:15;97958.56;;;21.61;49.28
65227;BME280;51805;49.012;12.104;2023-02-01T07:09:40;97971.00;;;21.62;49.00
65227;BME280;51805;49.012;12.104;2023-02-01T07:12:06;97977.75;;;21.65;48.97
65227;BME280;51805;49.012;12.104;2023-02-01T07:14:31;97977.22;;;21.73;48.69
65227;BME280;51805;49.012;12.104;2023-02-01T07:16:56;97972.34;;;21.80;48.64
65227;BME280;51805;49.012;12.104;2023-02-01T07:19:21;97979.38;;;21.86;48.46
65227;BME280;51805;49.012;12.104;2023-02-01T07:21:46;97987.75;;;21.84;48.65
65227;BME280;51805;49.012;12.104;2023-02-01T07:24:11;97993.16;;;21.84;48.69
65227;BME280;51805;49.012;12.104;2023-02-01T07:26:36;97998.28;;;21.86;48.71
65227;BME280;51805;49.012;12.104;2023-02-01T07:29:02;98008.34;;;21.85;48.57
65227;BME280;51805;49.012;12.104;2023-02-01T07:31:27;98013.75;;;21.85;48.60
65227;BME280;51805;49.012;12.104;2023-02-01T07:33:52;98032.41;;;21.87;48.86
65227;BME280;51805;49.012;12.104;2023-02-01T07:36:17;98033.19;;;21.87;48.58
65227;BME280;51805;49.012;12.104;2023-02-01T07:38:43;98045.66;;;21.83;48.80
65227;BME280;51805;49.012;12.104;2023-02-01T07:41:08;98044.03;;;21.87;48.71
65227;BME280;51805;49.012;12.104;2023-02-01T07:43:34;98045.66;;;21.88;48.80
65227;BME280;51805;49.012;12.104;2023-02-01T07:46:00;98037.00;;;21.86;48.93
65227;BME280;51805;49.012;12.104;2023-02-01T07:48:26;98036.44;;;21.84;48.78
65227;BME280;51805;49.012;12.104;2023-02-01T07:50:58;98023.47;;;21.86;48.83
65227;BME280;51805;49.012;12.104;2023-02-01T07:53:23;98022.91;;;21.89;48.79
65227;BME280;51805;49.012;12.104;2023-02-01T07:55:48;98024.81;;;21.89;48.76
65227;BME280;51805;49.012;12.104;2023-02-01T07:58:13;98020.50;;;21.88;48.75
65227;BME280;51805;49.012;12.104;2023-02-01T08:00:38;98019.41;;;21.94;48.64
65227;BME280;51805;49.012;12.104;2023-02-01T08:03:04;98025.34;;;21.96;48.80
65227;BME280;51805;49.012;12.104;2023-02-01T08:05:29;98017.50;;;21.99;48.59
65227;BME280;51805;49.012;12.104;2023-02-01T08:07:54;98020.44;;;22.03;48.50
65227;BME280;51805;49.012;12.104;2023-02-01T08:10:19;98008.84;;;22.02;48.48
65227;BME280;51805;49.012;12.104;2023-02-01T08:12:44;98010.72;;;22.02;48.82
65227;BME280;51805;49.012;12.104;2023-02-01T08:15:10;98011.00;;;22.00;48.64
65227;BME280;51805;49.012;12.104;2023-02-01T08:17:35;98005.03;;;22.03;48.56
65227;BME280;51805;49.012;12.104;2023-02-01T08:20:00;98010.44;;;22.03;48.58
65227;BME280;51805;49.012;12.104;2023-02-01T08:22:25;98019.13;;;22.05;48.79
65227;BME280;51805;49.012;12.104;2023-02-01T08:24:50;98018.81;;;22.12;48.40
65227;BME280;51805;49.012;12.104;2023-02-01T08:27:16;98013.66;;;22.15;48.35
65227;BME280;51805;49.012;12.104;2023-02-01T08:29:41;98021.22;;;22.13;48.54
65227;BME280;51805;49.012;12.104;2023-02-01T08:32:06;98022.31;;;22.12;48.55
65227;BME280;51805;49.012;12.104;2023-02-01T08:34:31;98025.31;;;22.16;48.39
65227;BME280;51805;49.012;12.104;2023-02-01T08:36:56;98019.34;;;22.19;48.57
65227;BME280;51805;49.012;12.104;2023-02-01T08:39:21;98009.56;;;22.18;48.53
65227;BME280;51805;49.012;12.104;2023-02-01T08:41:46;98004.72;;;22.20;48.46
65227;BME280;51805;49.012;12.104;2023-02-01T08:44:12;98001.22;;;22.19;48.52
65227;BME280;51805;49.012;12.104;2023-02-01T08:46:37;98012.03;;;22.19;48.52
65227;BME280;51805;49.012;12.104;2023-02-01T08:49:02;98004.44;;;22.21;48.57
65227;BME280;51805;49.012;12.104;2023-02-01T08:51:27;98002.81;;;22.20;48.59
65227;BME280;51805;49.012;12.104;2023-02-01T08:53:52;98014.72;;;22.24;48.45
65227;BME280;51805;49.012;12.104;2023-02-01T08:56:18;98008.50;;;22.24;48.42
65227;BME280;51805;49.012;12.104;2023-02-01T08:58:43;98004.41;;;22.26;48.42
65227;BME280;51805;49.012;12.104;2023-02-01T09:01:09;98004.69;;;22.30;48.35
65227;BME280;51805;49.012;12.104;2023-02-01T09:03:35;97998.44;;;22.29;48.40
65227;BME280;51805;49.012;12.104;2023-02-01T09:06:03;97990.88;;;22.31;48.36
65227;BME280;51805;49.012;12.104;2023-02-01T09:08:29;98006.56;;;22.34;48.20
65227;BME280;51805;49.012;12.104;2023-02-01T09:10:58;97996.78;;;22.38;48.12
65227;BME280;51805;49.012;12.104;2023-02-01T09:13:23;98001.94;;;22.40;48.16
65227;BME280;51805;49.012;12.104;2023-02-01T09:15:50;98001.38;;;22.43;48.21
65227;BME280;51805;49.012;12.104;2023-02-01T09:18:15;97996.22;;;22.46;48.13
65227;BME280;51805;49.012;12.104;2023-02-01T09:20:40;97997.81;;;22.47;48.12
65227;BME280;51805;49.012;12.104;2023-02-01T09:23:05;98005.16;;;22.47;48.22
65227;BME280;51805;49.012;12.104;2023-02-01T09:25:30;98017.88;;;22.46;48.19
65227;BME280;51805;49.012;12.104;2023-02-01T09:27:55;98021.41;;;22.47;48.08
65227;BME280;51805;49.012;12.104;2023-02-01T09:30:20;98024.41;;;22.45;48.32
65227;BME280;51805;49.012;12.104;2023-02-01T09:32:46;98033.03;;;22.47;48.05
65227;BME280;51805;49.012;12.104;2023-02-01T09:35:11;98043.06;;;22.47;48.17
65227;BME280;51805;49.012;12.104;2023-02-01T09:37:36;98039.28;;;22.48;48.25
65227;BME280;51805;49.012;12.104;2023-02-01T09:40:01;98039.00;;;22.49;48.22
65227;BME280;51805;49.012;12.104;2023-02-01T09:45:29;98032.47;;;22.50;48.22
65227;BME280;51805;49.012;12.104;2023-02-01T09:47:47;98037.09;;;22.50;48.30
65227;BME280;51805;49.012;12.104;2023-02-01T09:50:16;98032.47;;;22.50;48.25
65227;BME280;51805;49.012;12.104;2023-02-01T09:52:55;98041.69;;;22.49;48.30
65227;BME280;51805;49.012;12.104;2023-02-01T09:55:30;98047.13;;;22.49;48.25
65227;BME280;51805;49.012;12.104;2023-02-01T09:58:01;98033.84;;;22.48;48.22
65227;BME280;51805;49.012;12.104;2023-02-01T10:00:29;98044.69;;;22.48;48.37
65227;BME280;51805;49.012;12.104;2023-02-01T10:02:55;98053.91;;;22.47;48.25
65227;BME280;51805;49.012;12.104;2023-02-01T10:10:47;98046.34;;;22.39;48.29
65227;BME280;51805;49.012;12.104;2023-02-01T10:13:23;98042.81;;;22.43;48.29
65227;BME280;51805;49.012;12.104;2023-02-01T10:15:58;98046.63;;;22.42;48.37
65227;BME280;51805;49.012;12.104;2023-02-01T10:21:02;98044.69;;;22.48;48.23
65227;BME280;51805;49.012;12.104;2023-02-01T10:28:34;98030.34;;;22.52;48.02
65227;BME280;51805;49.012;12.104;2023-02-01T10:31:01;98038.47;;;22.52;48.31
65227;BME280;51805;49.012;12.104;2023-02-01T10:33:31;98037.38;;;22.53;48.08
65227;BME280;51805;49.012;12.104;2023-02-01T10:38:40;98033.59;;;22.54;48.06
65227;BME280;51805;49.012;12.104;2023-02-01T10:41:15;98031.13;;;22.58;48.13
65227;BME280;51805;49.012;12.104;2023-02-01T10:43:41;98025.97;;;22.56;48.13
65227;BME280;51805;49.012;12.104;2023-02-01T10:46:07;98016.22;;;22.60;48.13
65227;BME280;51805;49.012;12.104;2023-02-01T10:48:32;98031.94;;;22.63;48.12
65227;BME280;51805;49.012;12.104;2023-02-01T10:51:21;98034.09;;;22.61;48.12
65227;BME280;51805;49.012;12.104;2023-02-01T10:56:12;98035.19;;;22.60;48.17
65227;BME280;51805;49.012;12.104;2023-02-01T10:58:45;98045.75;;;22.62;48.17
65227;BME280;51805;49.012;12.104;2023-02-01T11:01:20;98060.13;;;22.62;48.09
65227;BME280;51805;49.012;12.104;2023-02-01T11:03:53;98061.19;;;22.61;48.16
65227;BME280;51805;49.012;12.104;2023-02-01T11:08:51;98060.63;;;22.64;48.09
65227;BME280;51805;49.012;12.104;2023-02-01T11:11:16;98069.84;;;22.63;48.28
65227;BME280;51805;49.012;12.104;2023-02-01T11:13:41;98074.72;;;22.66;48.21
65227;BME280;51805;49.012;12.104;2023-02-01T11:16:09;98064.41;;;22.68;48.05
65227;BME280;51805;49.012;12.104;2023-02-01T11:18:36;98067.13;;;22.68;48.14
65227;BME280;51805;49.012;12.104;2023-02-01T11:21:02;98073.34;;;22.69;48.06
65227;BME280;51805;49.012;12.104;2023-02-01T11:23:27;98067.63;;;22.70;48.07
65227;BME280;51805;49.012;12.104;2023-02-01T11:25:55;98058.44;;;22.71;48.17
65227;BME280;51805;49.012;12.104;2023-02-01T11:28:22;98048.13;;;22.73;48.09
65227;BME280;51805;49.012;12.104;2023-02-01T11:30:48;98060.59;;;22.74;48.19
65227;BME280;51805;49.012;12.104;2023-02-01T11:33:16;98050.53;;;22.75;48.21
65227;BME280;51805;49.012;12.104;2023-02-01T11:35:42;98058.41;;;22.76;48.16
65227;BME280;51805;49.012;12.104;2023-02-01T11:40:42;98035.66;;;22.77;48.25
65227;BME280;51805;49.012;12.104;2023-02-01T11:43:11;98028.31;;;22.78;48.13
65227;BME280;51805;49.012;12.104;2023-02-01T11:45:38;98045.38;;;22.78;48.10
65227;BME280;51805;49.012;12.104;2023-02-01T11:48:07;98042.69;;;22.78;48.36
65227;BME280;51805;49.012;12.104;2023-02-01T11:53:32;98015.31;;;22.80;48.22
65227;BME280;51805;49.012;12.104;2023-02-01T11:56:11;98007.47;;;22.78;48.18
65227;BME280;51805;49.012;12.104;2023-02-01T12:19:17;97991.44;;;22.87;48.11
65227;BME280;51805;49.012;12.104;2023-02-01T12:32:11;97986.81;;;22.87;48.06
65227;BME280;51805;49.012;12.104;2023-02-01T12:42:27;97992.28;;;22.82;48.16
65227;BME280;51805;49.012;12.104;2023-02-01T12:47:33;98003.41;;;22.81;48.21
65227;BME280;51805;49.012;12.104;2023-02-01T12:50:01;97992.28;;;22.82;48.17
65227;BME280;51805;49.012;12.104;2023-02-01T12:52:38;97986.84;;;22.82;48.13
65227;BME280;51805;49.012;12.104;2023-02-01T12:55:20;97992.28;;;22.82;48.00
65227;BME280;51805;49.012;12.104;2023-02-01T12:57:49;97993.88;;;22.83;48.07
65227;BME280;51805;49.012;12.104;2023-02-01T13:00:30;97994.72;;;22.84;48.03
65227;BME280;51805;49.012;12.104;2023-02-01T13:05:34;98003.34;;;22.86;47.99
65227;BME280;51805;49.012;12.104;2023-02-01T13:08:08;98001.47;;;22.86;47.94
65227;BME280;51805;49.012;12.104;2023-02-01T13:10:36;97995.50;;;22.84;48.23
65227;BME280;51805;49.012;12.104;2023-02-01T13:13:07;97987.38;;;22.79;48.11
65227;BME280;51805;49.012;12.104;2023-02-01T13:15:39;97987.63;;;22.88;48.05
65227;BME280;51805;49.012;12.104;2023-02-01T13:18:06;97984.63;;;22.89;48.12
65227;BME280;51805;49.012;12.104;2023-02-01T13:25:35;97985.16;;;22.91;48.10
65227;BME280;51805;49.012;12.104;2023-02-01T13:29:04;97983.53;;;22.90;48.17
65227;BME280;51805;49.012;12.104;2023-02-01T13:33:47;97973.78;;;22.89;48.33
65227;BME280;51805;49.012;12.104;2023-02-01T13:36:42;97974.63;;;22.90;48.33
65227;BME280;51805;49.012;12.104;2023-02-01T13:42:26;97978.13;;;22.90;48.33
65227;BME280;51805;49.012;12.104;2023-02-01T13:44:55;97973.22;;;22.92;48.36
65227;BME280;51805;49.012;12.104;2023-02-01T13:47:26;97974.84;;;22.93;48.23
65227;BME280;51805;49.012;12.104;2023-02-01T13:49:53;97974.84;;;22.93;48.25
65227;BME280;51805;49.012;12.104;2023-02-01T13:52:39;97957.78;;;22.93;48.35
65227;BME280;51805;49.012;12.104;2023-02-01T13:57:45;97958.56;;;22.93;48.23
65227;BME280;51805;49.012;12.104;2023-02-01T14:10:46;97967.25;;;22.95;48.34
65227;BME280;51805;49.012;12.104;2023-02-01T14:13:33;97972.94;;;22.94;48.29
65227;BME280;51805;49.012;12.104;2023-02-01T14:23:41;97977.84;;;22.92;48.34
65227;BME280;51805;49.012;12.104;2023-02-01T14:26:08;97976.75;;;22.93;48.36
65227;BME280;51805;49.012;12.104;2023-02-01T14:28:35;97979.75;;;22.91;48.37
65227;BME280;51805;49.012;12.104;2023-02-01T14:31:03;97975.38;;;22.95;48.28
65227;BME280;51805;49.012;12.104;2023-02-01T14:33:40;97966.16;;;22.96;48.19
65227;BME280;51805;49.012;12.104;2023-02-01T14:36:07;97979.69;;;22.96;48.30
65227;BME280;51805;49.012;12.104;2023-02-01T14:38:34;97980.78;;;22.95;48.30
65227;BME280;51805;49.012;12.104;2023-02-01T14:49:09;97978.13;;;22.90;48.61
65227;BME280;51805;49.012;12.104;2023-02-01T14:51:35;97989.50;;;22.87;48.70
65227;BME280;51805;49.012;12.104;2023-02-01T14:54:00;97975.69;;;22.89;48.62
65227;BME280;51805;49.012;12.104;2023-02-01T14:56:25;97981.94;;;22.84;48.58
65227;BME280;51805;49.012;12.104;2023-02-01T14:58:54;97986.56;;;22.84;48.55
65227;BME280;51805;49.012;12.104;2023-02-01T15:01:30;97982.53;;;22.76;48.75
65227;BME280;51805;49.012;12.104;2023-02-01T15:08:48;97979.31;;;22.74;48.60
65227;BME280;51805;49.012;12.104;2023-02-01T15:11:16;97986.84;;;22.82;48.46